ETSN

Neuburg Airport

Germany
TAF ETSN 221440Z 2215/2224 10006KT 5000 BR OVC008 TEMPO 2215/2224 VRB03KT 2000 BR OVC004 BY ETGL
Issued Valid From Valid To
Jan-22 @ 14:40 UTC
(3 hours ago)
Jan-22 @ 15:00 UTC
(3 hours ago)
Jan-23 @ 00:00 UTC
(in 6 hours)
Jan-22 @ 15:00 to Jan-23 @ 00:00
TAF ETSN 221440Z 2215/2224 10006KT 5000 BR OVC008
Wind Visibility Clouds Conditions
100° at 6 knots 5,005 meters
  • Overcast at 800' AGL
  • Mist
Temporary Jan-22 @ 15:00 to Jan-23 @ 00:00
TEMPO 2215/2224 VRB03KT 2000 BR OVC004 BY ETGL
Wind Visibility Clouds Conditions
Variable at 3 knots 1,996 meters
  • Overcast at 400' AGL
  • Mist
TAF ETSN 221440Z 2215/2224 10006KT 5000 BR OVC008 TEMPO 2215/2224 VRB03KT 2000 BR OVC004 BY ETGL
Issued Jan-22 @ 14:40 UTC
(3 hours ago)
Valid From Jan-22 @ 15:00 UTC
(3 hours ago)
Valid To Jan-23 @ 00:00 UTC
(in 6 hours)
Jan-22 @ 15:00 - Jan-23 @ 00:00
Wind Visibility
100° at 6 knots 5,005 meters
Clouds
  • Overcast at 800' AGL
Conditions
  • Mist
Temporary Jan-22 @ 15:00 - Jan-23 @ 00:00
Wind Visibility
Variable at 3 knots 1,996 meters
Clouds
  • Overcast at 400' AGL
Conditions
  • Mist